createdAt,value
2023-02-02T00:01:32.634Z,5.53
2023-02-02T00:04:00.411Z,5.13
2023-02-02T00:06:30.410Z,5.57
2023-02-02T00:08:59.689Z,5.50
2023-02-02T00:11:27.202Z,5.38
2023-02-02T00:13:55.285Z,5.35
2023-02-02T00:16:36.516Z,5.50
2023-02-02T00:19:07.300Z,4.93
2023-02-02T00:21:34.705Z,4.88
2023-02-02T00:24:02.070Z,4.55
2023-02-02T00:26:32.115Z,5.85
2023-02-02T00:28:59.670Z,5.75
2023-02-02T00:31:27.104Z,5.75
2023-02-02T00:33:54.638Z,5.53
2023-02-02T00:36:22.615Z,5.60
2023-02-02T00:38:51.406Z,5.40
2023-02-02T00:41:19.018Z,4.55
2023-02-02T00:44:06.495Z,5.40
2023-02-02T00:46:34.052Z,5.50
2023-02-02T00:49:01.522Z,5.28
2023-02-02T00:51:28.881Z,5.60
2023-02-02T00:53:56.170Z,5.40
2023-02-02T00:56:23.594Z,6.00
2023-02-02T00:58:51.034Z,5.32
2023-02-02T01:01:22.200Z,4.88
2023-02-02T01:03:50.565Z,5.40
2023-02-02T01:06:18.839Z,5.38
2023-02-02T01:08:46.158Z,5.50
2023-02-02T01:11:13.511Z,5.22
2023-02-02T01:13:41.304Z,5.47
2023-02-02T01:16:08.801Z,5.75
2023-02-02T01:18:36.134Z,5.30
2023-02-02T01:21:09.265Z,5.55
2023-02-02T01:23:37.657Z,5.40
2023-02-02T01:26:07.273Z,5.50
2023-02-02T01:28:35.047Z,5.88
2023-02-02T01:31:08.078Z,5.22
2023-02-02T01:33:35.656Z,6.07
2023-02-02T01:36:06.152Z,5.70
2023-02-02T01:38:34.152Z,5.32
2023-02-02T01:41:04.470Z,5.50
2023-02-02T01:43:55.062Z,5.78
2023-02-02T01:46:32.829Z,4.97
2023-02-02T01:49:16.844Z,5.50
2023-02-02T01:51:47.345Z,4.95
2023-02-02T01:54:25.360Z,5.00
2023-02-02T01:57:06.702Z,5.05
2023-02-02T01:59:34.522Z,5.60
2023-02-02T02:02:02.853Z,5.25
2023-02-02T02:04:31.352Z,4.78
2023-02-02T02:07:00.140Z,4.90
2023-02-02T02:09:27.512Z,4.82
2023-02-02T02:11:56.974Z,4.82
2023-02-02T02:14:43.805Z,4.60
2023-02-02T02:17:16.755Z,5.28
2023-02-02T02:22:54.479Z,4.45
2023-02-02T02:26:10.897Z,5.85
2023-02-02T02:29:01.450Z,4.80
2023-02-02T02:32:06.530Z,5.15
2023-02-02T02:34:49.399Z,4.13
2023-02-02T02:37:39.792Z,5.20
2023-02-02T02:40:20.709Z,5.15
2023-02-02T02:42:52.376Z,5.35
2023-02-02T02:45:20.172Z,4.55
2023-02-02T02:47:48.819Z,5.55
2023-02-02T02:50:16.398Z,5.03
2023-02-02T02:52:43.928Z,5.43
2023-02-02T02:55:11.913Z,5.40
2023-02-02T02:58:05.844Z,5.30
2023-02-02T03:00:54.556Z,5.15
2023-02-02T03:03:37.305Z,5.35
2023-02-02T03:06:28.489Z,5.38
2023-02-02T03:09:13.895Z,5.30
2023-02-02T03:11:41.403Z,5.60
2023-02-02T03:14:09.731Z,5.60
2023-02-02T03:16:40.545Z,5.68
2023-02-02T03:19:08.552Z,4.82
2023-02-02T03:21:35.976Z,5.47
2023-02-02T03:24:03.454Z,4.90
2023-02-02T03:26:30.859Z,5.38
2023-02-02T03:28:58.442Z,5.07
2023-02-02T03:31:28.305Z,5.63
2023-02-02T03:33:56.372Z,5.00
2023-02-02T03:36:24.399Z,5.50
2023-02-02T03:38:51.719Z,5.05
2023-02-02T03:41:19.061Z,4.47
2023-02-02T03:43:46.561Z,4.70
2023-02-02T03:46:14.003Z,5.90
2023-02-02T03:48:41.420Z,4.30
2023-02-02T03:51:09.294Z,4.40
2023-02-02T03:53:36.904Z,4.72
2023-02-02T03:56:04.431Z,4.50
2023-02-02T03:58:31.859Z,4.18
2023-02-02T04:01:13.110Z,4.13
2023-02-02T04:03:41.586Z,4.30
2023-02-02T04:06:08.934Z,4.55
2023-02-02T04:08:36.274Z,3.88
2023-02-02T04:11:03.772Z,4.50
2023-02-02T04:13:31.178Z,5.28
2023-02-02T04:16:02.066Z,4.55
2023-02-02T04:18:29.520Z,4.32
2023-02-02T04:21:00.972Z,5.53
2023-02-02T04:23:29.247Z,4.93
2023-02-02T04:25:57.041Z,4.75
2023-02-02T04:28:25.303Z,4.80
2023-02-02T04:30:54.729Z,4.93
2023-02-02T04:33:23.963Z,4.60
2023-02-02T04:35:51.408Z,5.22
2023-02-02T04:38:18.953Z,4.32
2023-02-02T04:40:47.764Z,4.90
2023-02-02T04:43:15.274Z,4.88
2023-02-02T04:45:42.895Z,5.40
2023-02-02T04:48:10.734Z,4.78
2023-02-02T04:50:38.082Z,4.97
2023-02-02T04:53:06.086Z,4.47
2023-02-02T04:55:38.980Z,4.75
2023-02-02T05:00:33.806Z,4.13
2023-02-02T05:03:01.446Z,4.47
2023-02-02T05:05:28.938Z,3.97
2023-02-02T05:07:56.277Z,4.00
2023-02-02T05:10:23.626Z,4.55
2023-02-02T05:12:55.853Z,4.15
2023-02-02T05:15:23.980Z,4.00
2023-02-02T05:17:51.488Z,5.10
2023-02-02T05:20:18.936Z,4.05
2023-02-02T05:22:49.978Z,4.32
2023-02-02T05:25:18.237Z,4.32
2023-02-02T05:27:49.295Z,4.72
2023-02-02T05:30:17.269Z,3.80
2023-02-02T05:32:44.576Z,4.28
2023-02-02T05:35:12.000Z,4.40
2023-02-02T05:37:39.318Z,4.70
2023-02-02T05:40:07.532Z,4.20
2023-02-02T05:42:34.859Z,4.10
2023-02-02T05:45:02.569Z,5.03
2023-02-02T05:47:29.871Z,4.53
2023-02-02T05:49:57.137Z,4.15
2023-02-02T05:52:33.814Z,4.32
2023-02-02T05:55:01.290Z,4.32
2023-02-02T05:57:31.384Z,4.32
2023-02-02T05:59:58.704Z,4.22
2023-02-02T06:02:26.003Z,4.65
2023-02-02T06:04:53.304Z,4.78
2023-02-02T06:07:20.609Z,5.10
2023-02-02T06:09:48.058Z,4.60
2023-02-02T06:12:15.417Z,4.05
2023-02-02T06:14:43.033Z,4.10
2023-02-02T06:17:10.465Z,4.88
2023-02-02T06:19:37.920Z,4.72
2023-02-02T06:22:05.511Z,4.10
2023-02-02T06:24:32.840Z,4.75
2023-02-02T06:27:02.079Z,4.78
2023-02-02T06:29:29.411Z,5.07
2023-02-02T06:31:59.924Z,4.78
2023-02-02T06:34:27.301Z,4.75
2023-02-02T06:36:54.692Z,4.47
2023-02-02T06:39:22.108Z,4.47
2023-02-02T06:41:49.622Z,5.03
2023-02-02T06:44:17.259Z,4.75
2023-02-02T06:46:47.238Z,4.05
2023-02-02T06:49:25.707Z,4.97
2023-02-02T06:51:59.892Z,4.75
2023-02-02T06:54:31.341Z,4.97
2023-02-02T06:56:59.790Z,4.25
2023-02-02T06:59:27.063Z,4.95
2023-02-02T07:01:55.079Z,4.78
2023-02-02T07:04:22.529Z,4.43
2023-02-02T07:06:49.976Z,4.50
2023-02-02T07:09:17.715Z,5.15
2023-02-02T07:11:45.404Z,4.70
2023-02-02T07:14:15.831Z,4.68
2023-02-02T07:16:43.810Z,4.75
2023-02-02T07:19:11.224Z,4.88
2023-02-02T07:21:38.841Z,4.43
2023-02-02T07:24:06.887Z,4.72
2023-02-02T07:26:36.064Z,4.40
2023-02-02T07:29:06.960Z,3.85
2023-02-02T07:31:36.596Z,4.32
2023-02-02T07:34:04.708Z,4.55
2023-02-02T07:36:32.078Z,4.30
2023-02-02T07:38:59.829Z,4.35
2023-02-02T07:41:27.958Z,4.72
2023-02-02T07:43:56.327Z,4.30
2023-02-02T07:46:23.663Z,5.07
2023-02-02T07:48:55.537Z,4.43
2023-02-02T07:51:23.367Z,4.22
2023-02-02T07:53:52.710Z,4.53
2023-02-02T07:56:22.185Z,4.57
2023-02-02T07:58:51.274Z,4.53
2023-02-02T08:01:20.425Z,4.35
2023-02-02T08:03:47.871Z,4.40
2023-02-02T08:06:21.067Z,4.80
2023-02-02T08:08:49.253Z,4.60
2023-02-02T08:11:19.218Z,4.38
2023-02-02T08:13:50.251Z,4.25
2023-02-02T08:16:17.734Z,3.92
2023-02-02T08:18:45.092Z,4.22
2023-02-02T08:21:12.715Z,4.70
2023-02-02T08:23:41.465Z,4.55
2023-02-02T08:26:14.591Z,5.07
2023-02-02T08:28:43.727Z,4.97
2023-02-02T08:31:17.341Z,5.10
2023-02-02T08:33:44.979Z,4.45
2023-02-02T08:36:13.746Z,4.30
2023-02-02T08:38:41.568Z,4.20
2023-02-02T08:41:11.066Z,4.60
2023-02-02T08:43:38.525Z,4.40
2023-02-02T08:46:06.670Z,4.53
2023-02-02T08:48:35.186Z,4.55
2023-02-02T08:51:03.050Z,4.47
2023-02-02T08:53:30.505Z,4.25
2023-02-02T08:56:03.980Z,4.00
2023-02-02T08:58:32.328Z,3.75
2023-02-02T09:01:16.652Z,4.25
2023-02-02T09:03:44.104Z,4.20
2023-02-02T09:06:14.621Z,4.32
2023-02-02T09:08:41.949Z,4.75
2023-02-02T09:11:16.457Z,3.90
2023-02-02T09:13:45.918Z,3.67
2023-02-02T09:16:14.734Z,3.90
2023-02-02T09:18:43.128Z,3.72
2023-02-02T09:21:13.428Z,4.20
2023-02-02T09:23:41.927Z,3.85
2023-02-02T09:26:11.512Z,4.00
2023-02-02T09:28:40.361Z,3.90
2023-02-02T09:31:08.579Z,4.30
2023-02-02T09:33:36.431Z,4.25
2023-02-02T09:36:12.312Z,4.20
2023-02-02T09:38:40.498Z,4.35
2023-02-02T09:41:30.777Z,4.18
2023-02-02T09:44:18.668Z,4.43
2023-02-02T09:46:55.867Z,3.53
2023-02-02T09:49:47.848Z,3.72
2023-02-02T09:52:38.601Z,3.72
2023-02-02T09:55:27.465Z,3.78
2023-02-02T09:58:07.469Z,3.75
2023-02-02T10:00:39.925Z,4.07
2023-02-02T10:03:41.019Z,4.97
2023-02-02T10:06:21.123Z,3.28
2023-02-02T10:08:56.041Z,4.28
2023-02-02T10:11:31.296Z,4.40
2023-02-02T10:14:06.703Z,3.47
2023-02-02T10:16:35.053Z,4.32
2023-02-02T10:19:05.603Z,4.28
2023-02-02T10:21:48.963Z,3.80
2023-02-02T10:24:24.753Z,3.53
2023-02-02T10:26:58.429Z,3.88
2023-02-02T10:29:40.135Z,4.53
2023-02-02T10:32:25.447Z,3.63
2023-02-02T10:35:20.717Z,3.63
2023-02-02T10:37:50.321Z,4.07
2023-02-02T10:41:10.636Z,3.70
2023-02-02T10:44:01.450Z,3.58
2023-02-02T10:46:33.794Z,3.70
2023-02-02T10:49:35.727Z,3.95
2023-02-02T10:52:18.252Z,2.80
2023-02-02T10:55:12.167Z,4.07
2023-02-02T10:57:51.890Z,3.97
2023-02-02T11:00:23.927Z,3.75
2023-02-02T11:02:53.209Z,3.78
2023-02-02T11:05:41.873Z,3.90
2023-02-02T11:08:18.430Z,3.60
2023-02-02T11:10:48.476Z,3.50
2023-02-02T11:13:27.298Z,3.72
2023-02-02T11:16:23.816Z,3.58
2023-02-02T11:18:51.381Z,3.75
2023-02-02T11:21:21.597Z,3.78
2023-02-02T11:24:22.241Z,3.40
2023-02-02T11:26:56.768Z,3.47
2023-02-02T11:29:39.341Z,3.17
2023-02-02T11:32:40.404Z,3.15
2023-02-02T11:35:08.263Z,3.65
2023-02-02T11:37:39.805Z,3.72
2023-02-02T11:40:30.377Z,4.05
2023-02-02T11:43:03.005Z,3.95
2023-02-02T11:45:35.613Z,3.67
2023-02-02T11:48:18.225Z,4.15
2023-02-02T11:50:55.953Z,4.88
2023-02-02T11:53:46.940Z,3.47
2023-02-02T11:56:25.518Z,3.67
2023-02-02T11:59:04.136Z,4.28
2023-02-02T12:01:32.921Z,4.00
2023-02-02T12:04:02.399Z,4.07
2023-02-02T12:06:39.897Z,4.55
2023-02-02T12:09:22.703Z,4.10
2023-02-02T12:12:15.080Z,3.60
2023-02-02T12:15:12.814Z,4.10
2023-02-02T12:17:45.926Z,4.22
2023-02-02T12:20:43.364Z,4.15
2023-02-02T12:23:35.196Z,3.65
2023-02-02T12:26:22.844Z,4.10
2023-02-02T12:29:08.904Z,4.20
2023-02-02T12:31:55.909Z,4.63
2023-02-02T12:35:07.823Z,4.40
2023-02-02T12:37:50.097Z,3.90
2023-02-02T12:40:41.431Z,3.87
2023-02-02T12:43:40.730Z,3.85
2023-02-02T12:46:39.299Z,3.38
2023-02-02T12:49:18.650Z,3.40
2023-02-02T12:52:05.974Z,3.70
2023-02-02T12:55:08.057Z,3.95
2023-02-02T12:57:45.297Z,3.63
2023-02-02T13:00:28.316Z,3.88
2023-02-02T13:05:48.052Z,3.38
2023-02-02T13:08:33.777Z,3.70
2023-02-02T13:11:06.400Z,3.88
2023-02-02T13:13:40.359Z,4.20
2023-02-02T13:16:10.775Z,3.97
2023-02-02T13:18:54.927Z,4.15
2023-02-02T13:21:23.434Z,3.80
2023-02-02T13:23:57.397Z,3.88
2023-02-02T13:26:35.327Z,4.05
2023-02-02T13:29:25.066Z,3.90
2023-02-02T13:32:06.201Z,4.35
2023-02-02T13:35:21.527Z,3.90
2023-02-02T13:37:57.587Z,3.90
2023-02-02T13:40:34.669Z,4.03
2023-02-02T13:43:05.236Z,4.00
2023-02-02T13:45:50.011Z,3.88
2023-02-02T13:48:29.632Z,3.90
2023-02-02T13:51:05.623Z,4.68
2023-02-02T13:54:03.700Z,4.22
2023-02-02T13:57:15.292Z,3.97
2023-02-02T14:00:11.001Z,4.57
2023-02-02T14:02:56.096Z,4.30
2023-02-02T14:05:27.602Z,4.70
2023-02-02T14:08:01.938Z,4.20
2023-02-02T14:10:38.650Z,4.90
2023-02-02T14:13:56.129Z,4.05
2023-02-02T14:16:32.626Z,4.97
2023-02-02T14:19:01.970Z,4.70
2023-02-02T14:21:33.214Z,4.82
2023-02-02T14:24:19.087Z,4.75
2023-02-02T14:26:49.504Z,4.72
2023-02-02T14:29:32.286Z,3.97
2023-02-02T14:32:01.873Z,4.82
2023-02-02T14:34:35.212Z,4.90
2023-02-02T14:37:23.867Z,5.43
2023-02-02T14:39:57.215Z,5.18
2023-02-02T14:43:21.711Z,4.68
2023-02-02T14:46:14.150Z,5.53
2023-02-02T14:48:59.507Z,5.20
2023-02-02T14:51:29.855Z,4.93
2023-02-02T14:54:01.234Z,5.25
2023-02-02T14:56:56.615Z,5.05
2023-02-02T14:59:33.526Z,5.53
2023-02-02T15:02:39.460Z,5.63
2023-02-02T15:05:36.519Z,5.53
2023-02-02T15:08:25.650Z,6.10
2023-02-02T15:10:58.721Z,6.68
2023-02-02T15:13:30.061Z,6.28
2023-02-02T15:16:08.251Z,5.65
2023-02-02T15:18:44.250Z,5.40
2023-02-02T15:21:17.815Z,5.88
2023-02-02T15:23:46.615Z,6.07
2023-02-02T15:26:22.603Z,6.30
2023-02-02T15:28:54.097Z,6.05
2023-02-02T15:31:41.512Z,6.28
2023-02-02T15:34:20.807Z,5.95
2023-02-02T15:36:52.096Z,5.90
2023-02-02T15:39:19.610Z,6.03
2023-02-02T15:42:12.097Z,6.07
2023-02-02T15:44:39.526Z,5.90
2023-02-02T15:47:15.107Z,6.28
2023-02-02T15:49:42.861Z,5.80
2023-02-02T15:52:35.457Z,5.63
2023-02-02T15:55:03.080Z,5.47
2023-02-02T15:57:37.713Z,5.60
2023-02-02T16:00:29.226Z,5.63
2023-02-02T16:03:19.732Z,5.38
2023-02-02T16:05:53.188Z,5.25
2023-02-02T16:08:25.363Z,5.00
2023-02-02T16:11:20.745Z,5.70
2023-02-02T16:13:59.072Z,5.57
2023-02-02T16:16:29.125Z,5.18
2023-02-02T16:19:04.955Z,6.13
2023-02-02T16:21:35.269Z,6.18
2023-02-02T16:24:06.774Z,5.10
2023-02-02T16:26:36.509Z,5.90
2023-02-02T16:29:04.288Z,5.55
2023-02-02T16:31:32.390Z,5.00
2023-02-02T16:34:02.673Z,5.88
2023-02-02T16:36:30.597Z,5.70
2023-02-02T16:39:01.212Z,6.32
2023-02-02T16:41:32.957Z,5.05
2023-02-02T16:44:38.690Z,5.60
2023-02-02T16:47:08.672Z,5.53
2023-02-02T16:49:58.346Z,5.38
2023-02-02T16:52:25.803Z,5.32
2023-02-02T16:54:56.534Z,5.60
2023-02-02T16:57:30.481Z,5.20
2023-02-02T17:00:00.966Z,5.40
2023-02-02T17:02:32.282Z,5.50
2023-02-02T17:05:01.295Z,5.60
2023-02-02T17:07:30.430Z,5.30
2023-02-02T17:10:16.737Z,5.57
2023-02-02T17:12:47.361Z,5.95
2023-02-02T17:15:17.886Z,5.18
2023-02-02T17:17:51.540Z,6.28
2023-02-02T17:20:19.529Z,5.95
2023-02-02T17:22:49.790Z,5.40
2023-02-02T17:25:43.584Z,5.07
2023-02-02T17:28:13.647Z,5.60
2023-02-02T17:30:43.002Z,5.45
2023-02-02T17:33:14.984Z,5.50
2023-02-02T17:35:53.832Z,5.23
2023-02-02T17:38:23.605Z,5.15
2023-02-02T17:40:51.731Z,4.35
2023-02-02T17:43:19.337Z,5.45
2023-02-02T17:45:46.818Z,4.53
2023-02-02T17:48:14.983Z,5.05
2023-02-02T17:50:43.276Z,4.90
2023-02-02T17:53:12.404Z,4.60
2023-02-02T17:55:42.021Z,5.43
2023-02-02T17:58:13.171Z,5.28
2023-02-02T18:00:40.952Z,5.38
2023-02-02T18:03:20.240Z,5.22
2023-02-02T18:05:47.655Z,5.68
2023-02-02T18:08:15.585Z,7.28
2023-02-02T18:10:43.494Z,5.28
2023-02-02T18:13:19.443Z,5.40
2023-02-02T18:15:47.805Z,5.13
2023-02-02T18:18:15.422Z,4.80
2023-02-02T18:20:47.254Z,5.82
2023-02-02T18:23:15.967Z,5.50
2023-02-02T18:25:43.362Z,6.00
2023-02-02T18:28:11.279Z,5.22
2023-02-02T18:30:39.790Z,5.38
2023-02-02T18:33:10.096Z,5.22
2023-02-02T18:35:42.302Z,6.10
2023-02-02T18:38:09.997Z,5.15
2023-02-02T18:40:38.043Z,5.47
2023-02-02T18:43:06.079Z,5.47
2023-02-02T18:45:33.500Z,5.50
2023-02-02T18:48:03.710Z,4.65
2023-02-02T18:50:31.089Z,5.45
2023-02-02T18:52:58.776Z,5.32
2023-02-02T18:55:27.218Z,4.57
2023-02-02T18:57:54.877Z,4.95
2023-02-02T19:00:22.580Z,4.78
2023-02-02T19:02:50.135Z,4.43
2023-02-02T19:05:36.587Z,4.53
2023-02-02T19:08:05.822Z,5.60
2023-02-02T19:10:33.398Z,4.40
2023-02-02T19:13:15.985Z,4.40
2023-02-02T19:16:11.087Z,4.28
2023-02-02T19:18:38.689Z,5.10
2023-02-02T19:21:09.879Z,4.57
2023-02-02T19:23:38.836Z,4.97
2023-02-02T19:26:24.653Z,5.07
2023-02-02T19:28:53.418Z,4.90
2023-02-02T19:31:23.906Z,5.30
2023-02-02T19:33:52.881Z,4.95
2023-02-02T19:36:22.111Z,5.53
2023-02-02T19:39:02.200Z,6.18
2023-02-02T19:41:30.685Z,5.25
2023-02-02T19:44:06.643Z,5.55
2023-02-02T19:46:40.341Z,4.78
2023-02-02T19:49:32.260Z,5.38
2023-02-02T19:52:01.498Z,5.05
2023-02-02T19:54:39.731Z,5.38
2023-02-02T19:57:26.872Z,4.55
2023-02-02T19:59:55.571Z,4.82
2023-02-02T20:02:58.824Z,4.50
2023-02-02T20:05:27.967Z,4.88
2023-02-02T20:08:05.677Z,4.32
2023-02-02T20:10:39.651Z,5.20
2023-02-02T20:13:33.184Z,4.47
2023-02-02T20:16:04.381Z,4.70
2023-02-02T20:18:43.756Z,4.40
2023-02-02T20:21:21.925Z,4.70
2023-02-02T20:23:49.403Z,4.97
2023-02-02T20:26:24.172Z,4.28
2023-02-02T20:28:55.284Z,4.00
2023-02-02T20:31:25.451Z,4.72
2023-02-02T20:33:55.599Z,5.00
2023-02-02T20:36:32.150Z,4.88
2023-02-02T20:39:16.484Z,4.90
2023-02-02T20:41:44.113Z,5.07
2023-02-02T20:44:12.205Z,4.68
2023-02-02T20:46:39.634Z,4.70
2023-02-02T20:49:07.155Z,5.28
2023-02-02T20:51:34.575Z,5.20
2023-02-02T20:54:02.221Z,5.00
2023-02-02T20:56:29.698Z,5.03
2023-02-02T20:58:57.204Z,4.53
2023-02-02T21:01:26.221Z,4.85
2023-02-02T21:03:53.687Z,5.18
2023-02-02T21:06:21.168Z,6.40
2023-02-02T21:08:52.299Z,6.07
2023-02-02T21:11:20.361Z,4.72
2023-02-02T21:13:48.466Z,6.05
2023-02-02T21:16:15.825Z,4.75
2023-02-02T21:18:47.421Z,5.45
2023-02-02T21:21:16.506Z,5.03
2023-02-02T21:23:47.242Z,5.28
2023-02-02T21:26:15.491Z,4.60
2023-02-02T21:28:43.013Z,5.07
2023-02-02T21:31:12.638Z,5.18
2023-02-02T21:33:43.995Z,5.18
2023-02-02T21:36:29.802Z,4.35
2023-02-02T21:39:21.916Z,4.78
2023-02-02T21:42:08.407Z,4.28
2023-02-02T21:45:25.240Z,4.30
2023-02-02T21:47:57.630Z,4.10
2023-02-02T21:50:40.396Z,4.80
2023-02-02T21:53:28.001Z,5.15
2023-02-02T21:55:58.645Z,4.32
2023-02-02T21:58:42.377Z,4.30
2023-02-02T22:01:38.704Z,4.80
2023-02-02T22:04:18.953Z,4.75
2023-02-02T22:06:52.332Z,3.75
2023-02-02T22:09:25.252Z,4.22
2023-02-02T22:14:27.475Z,5.50
2023-02-02T22:17:00.855Z,4.22
2023-02-02T22:19:28.297Z,4.15
2023-02-02T22:22:17.468Z,4.65
2023-02-02T22:24:46.131Z,5.45
2023-02-02T22:27:25.530Z,6.43
2023-02-02T22:30:00.963Z,5.10
2023-02-02T22:32:28.605Z,4.70
2023-02-02T22:34:56.011Z,5.45
2023-02-02T22:37:23.421Z,5.05
2023-02-02T22:39:50.792Z,4.18
2023-02-02T22:42:18.511Z,3.95
2023-02-02T22:44:46.580Z,4.40
2023-02-02T22:47:14.092Z,4.10
2023-02-02T22:49:41.491Z,5.18
2023-02-02T22:52:08.958Z,4.72
2023-02-02T22:54:36.489Z,4.70
2023-02-02T22:57:03.815Z,4.68
2023-02-02T22:59:31.155Z,5.03
2023-02-02T23:01:58.599Z,5.00
2023-02-02T23:04:26.071Z,4.88
2023-02-02T23:07:37.523Z,4.70
2023-02-02T23:10:05.990Z,4.75
2023-02-02T23:12:33.953Z,4.60
2023-02-02T23:15:01.325Z,5.45
2023-02-02T23:17:28.624Z,4.35
2023-02-02T23:19:56.077Z,4.72
2023-02-02T23:22:23.523Z,4.80
2023-02-02T23:24:50.901Z,5.63
2023-02-02T23:27:18.158Z,4.90
2023-02-02T23:29:45.528Z,5.25
2023-02-02T23:32:13.233Z,4.47
2023-02-02T23:34:40.554Z,5.32
2023-02-02T23:37:07.908Z,4.78
2023-02-02T23:39:35.314Z,5.32
2023-02-02T23:42:02.744Z,5.03
2023-02-02T23:44:30.047Z,4.18
2023-02-02T23:46:58.795Z,5.03
2023-02-02T23:49:26.300Z,4.82
2023-02-02T23:51:53.810Z,5.22
2023-02-02T23:54:21.529Z,4.60
2023-02-02T23:56:50.357Z,5.25
2023-02-02T23:59:17.708Z,4.40
